Time;durP1;ratioP1;P1;durP2;ratioP2;P2;SDS_P1;SDS_P2;PMS_P1;PMS_P2;Temp;Humidity;BMP_temperature;BMP_pressure;BME280_temperature;BME280_humidity;BME280_pressure;Samples;Min_cycle;Max_cycle;Signal;HPM_P1;HPM_P2
2022/01/02 00:01:35;;;;;;;7.77;4.00;;;12.80;99.90;;;;;;4958424;28;20244;-73
2022/01/02 00:04:06;;;;;;;6.83;4.43;;;12.80;99.90;;;;;;4956704;28;20303;-74
2022/01/02 00:06:33;;;;;;;7.73;3.90;;;12.70;99.90;;;;;;4943509;28;20299;-75
2022/01/02 00:09:04;;;;;;;11.77;4.80;;;12.70;99.90;;;;;;4950397;28;20263;-75
2022/01/02 00:11:31;;;;;;;9.90;5.07;;;12.70;99.90;;;;;;4961215;28;20716;-75
2022/01/02 00:14:08;;;;;;;9.23;4.50;;;12.60;99.90;;;;;;4954100;28;20209;-75
2022/01/02 00:16:37;;;;;;;7.17;4.20;;;12.50;99.90;;;;;;4960505;28;20358;-75
2022/01/02 00:19:19;;;;;;;9.57;4.73;;;12.50;99.90;;;;;;4950268;28;20236;-76
2022/01/02 00:21:47;;;;;;;12.20;4.30;;;12.50;99.90;;;;;;4963361;28;20581;-75
2022/01/02 00:24:19;;;;;;;9.07;5.00;;;12.40;99.90;;;;;;4961965;28;20679;-75
2022/01/02 00:26:49;;;;;;;12.03;4.70;;;12.50;99.90;;;;;;4958736;28;20212;-75
2022/01/02 00:29:15;;;;;;;10.27;5.47;;;12.40;99.90;;;;;;4962956;28;20201;-76
2022/01/02 00:31:42;;;;;;;9.00;4.80;;;12.40;99.90;;;;;;4958351;28;20251;-75
2022/01/02 00:34:10;;;;;;;8.37;4.47;;;12.40;99.90;;;;;;4952141;28;20215;-77
2022/01/02 00:36:37;;;;;;;7.17;4.90;;;12.40;99.90;;;;;;4957803;28;20605;-75
2022/01/02 00:39:06;;;;;;;10.10;4.93;;;12.30;99.90;;;;;;4952737;28;20221;-76
2022/01/02 00:42:23;;;;;;;9.67;5.40;;;12.30;99.90;;;;;;4940279;28;20207;-76
2022/01/02 00:45:21;;;;;;;7.67;5.07;;;12.30;99.90;;;;;;4926560;28;20569;-75
2022/01/02 00:48:28;;;;;;;8.57;4.90;;;12.20;99.90;;;;;;4957119;28;20644;-76
2022/01/02 00:51:17;;;;;;;9.00;4.20;;;12.20;99.90;;;;;;4918799;28;20216;-75
2022/01/02 00:53:46;;;;;;;9.93;5.13;;;12.10;99.90;;;;;;4942544;28;20230;-76
2022/01/02 00:56:17;;;;;;;8.83;5.17;;;12.20;99.90;;;;;;4924064;28;20757;-76
2022/01/02 00:58:53;;;;;;;8.60;5.00;;;12.10;99.90;;;;;;4957903;28;20247;-76
2022/01/02 01:01:24;;;;;;;9.97;5.20;;;12.10;99.90;;;;;;4959097;28;20307;-76
2022/01/02 01:03:54;;;;;;;12.30;5.47;;;12.10;99.90;;;;;;4938877;29;20216;-76
2022/01/02 01:06:25;;;;;;;11.17;5.47;;;12.10;99.90;;;;;;4958855;28;20319;-76
2022/01/02 01:08:58;;;;;;;12.00;5.07;;;12.10;99.90;;;;;;4956025;28;20219;-75
2022/01/02 01:11:26;;;;;;;10.23;5.40;;;12.10;99.90;;;;;;4959936;28;20329;-75
2022/01/02 01:13:55;;;;;;;8.23;5.03;;;12.10;99.90;;;;;;4952638;28;20648;-76
2022/01/02 01:16:22;;;;;;;9.77;4.97;;;12.10;99.90;;;;;;4958804;28;20265;-77
2022/01/02 01:18:49;;;;;;;12.27;5.40;;;12.00;99.90;;;;;;4957559;28;20251;-76
2022/01/02 01:21:16;;;;;;;8.90;5.00;;;12.00;99.90;;;;;;4958328;28;20644;-76
2022/01/02 01:23:43;;;;;;;10.20;5.13;;;12.00;99.90;;;;;;4961604;28;20370;-76
2022/01/02 01:26:12;;;;;;;14.57;5.87;;;11.90;99.90;;;;;;4957531;28;20211;-77
2022/01/02 01:28:39;;;;;;;11.53;5.20;;;11.90;99.90;;;;;;4955067;28;20239;-76
2022/01/02 01:31:06;;;;;;;9.07;5.67;;;11.90;99.90;;;;;;4956981;28;20299;-77
2022/01/02 01:33:32;;;;;;;11.67;6.00;;;11.90;99.90;;;;;;4955398;28;20275;-76
2022/01/02 01:35:59;;;;;;;13.23;5.87;;;11.90;99.90;;;;;;4961775;28;20213;-78
2022/01/02 01:38:27;;;;;;;11.17;5.63;;;11.90;99.90;;;;;;4956687;28;20209;-76
2022/01/02 01:41:14;;;;;;;12.37;5.70;;;11.90;99.90;;;;;;4959379;28;20208;-77
2022/01/02 01:43:53;;;;;;;12.10;5.67;;;11.90;99.90;;;;;;4954322;28;20291;-78
2022/01/02 01:46:20;;;;;;;9.77;5.43;;;11.90;99.90;;;;;;4960937;28;20428;-76
2022/01/02 01:48:52;;;;;;;12.47;5.87;;;11.80;99.90;;;;;;4958116;28;20208;-77
2022/01/02 01:51:19;;;;;;;13.33;6.60;;;11.80;99.90;;;;;;4953915;28;20340;-78
2022/01/02 01:53:46;;;;;;;14.77;6.00;;;11.80;99.90;;;;;;4958070;28;20584;-78
2022/01/02 01:56:13;;;;;;;14.20;6.20;;;11.90;99.90;;;;;;4958913;28;20560;-77
2022/01/02 01:58:39;;;;;;;11.53;5.73;;;11.90;99.90;;;;;;4954350;28;20744;-78
2022/01/02 02:01:06;;;;;;;12.97;5.90;;;11.90;99.90;;;;;;4955257;28;20204;-78
2022/01/02 02:03:33;;;;;;;12.83;5.53;;;11.90;99.90;;;;;;4948290;29;20299;-78
2022/01/02 02:06:00;;;;;;;15.87;5.90;;;11.90;99.90;;;;;;4952259;29;20236;-78
2022/01/02 02:08:28;;;;;;;11.80;6.27;;;11.90;99.90;;;;;;4955364;28;20295;-77
2022/01/02 02:10:57;;;;;;;10.60;5.80;;;11.90;99.90;;;;;;4957424;28;20216;-77
2022/01/02 02:13:24;;;;;;;11.23;5.53;;;11.90;99.90;;;;;;4963047;28;20299;-77
2022/01/02 02:15:55;;;;;;;17.83;5.33;;;12.00;99.90;;;;;;4956657;28;20209;-77
2022/01/02 02:18:22;;;;;;;14.33;5.40;;;12.00;99.90;;;;;;4958176;28;20597;-77
2022/01/02 02:20:49;;;;;;;12.13;5.53;;;12.00;99.90;;;;;;4954801;28;20280;-78
2022/01/02 02:23:16;;;;;;;11.30;5.23;;;12.00;99.90;;;;;;4956980;28;20211;-77
2022/01/02 02:25:43;;;;;;;16.67;5.20;;;12.00;99.90;;;;;;4953013;28;20212;-77
2022/01/02 02:28:16;;;;;;;9.27;4.60;;;12.00;99.90;;;;;;4961316;28;20650;-77
2022/01/02 02:30:47;;;;;;;14.13;6.03;;;12.00;99.90;;;;;;4955530;28;20209;-78
2022/01/02 02:33:15;;;;;;;13.97;5.43;;;12.00;99.90;;;;;;4962494;28;20215;-78
2022/01/02 02:35:43;;;;;;;10.77;5.00;;;12.00;99.90;;;;;;4948110;28;20234;-78
2022/01/02 02:38:11;;;;;;;14.50;5.43;;;12.00;99.90;;;;;;4957250;28;20279;-78
2022/01/02 02:40:39;;;;;;;13.20;5.57;;;12.00;99.90;;;;;;4957073;28;20204;-78
2022/01/02 02:43:25;;;;;;;12.97;5.07;;;12.00;99.90;;;;;;4952241;29;20204;-76
2022/01/02 02:54:04;;;;;;;9.87;5.00;;;12.10;99.90;;;;;;4958180;28;20537;-77
2022/01/02 02:57:19;;;;;;;10.07;5.30;;;12.10;99.90;;;;;;4958844;28;20207;-78
2022/01/02 02:59:19;;;;;;;13.00;4.50;;;12.20;99.90;;;;;;4949900;28;20207;-78
2022/01/02 03:01:46;;;;;;;10.43;4.70;;;12.20;99.90;;;;;;4957630;28;20216;-77
2022/01/02 03:04:13;;;;;;;13.13;5.00;;;12.30;99.90;;;;;;4955040;28;20779;-77
2022/01/02 03:06:40;;;;;;;11.03;4.20;;;12.30;99.90;;;;;;4944558;28;20291;-78
2022/01/02 03:09:09;;;;;;;11.50;4.53;;;12.30;99.90;;;;;;4950034;28;20209;-77
2022/01/02 03:11:41;;;;;;;10.00;4.27;;;12.30;99.90;;;;;;4956767;28;20232;-77
2022/01/02 03:14:10;;;;;;;17.13;5.87;;;12.40;99.90;;;;;;4956088;28;20295;-77
2022/01/02 03:16:38;;;;;;;9.40;4.10;;;12.40;99.90;;;;;;4955813;28;20212;-76
2022/01/02 03:19:06;;;;;;;11.67;4.63;;;12.50;99.90;;;;;;4964593;28;20290;-79
2022/01/02 03:21:33;;;;;;;9.13;3.97;;;12.50;99.90;;;;;;4944466;28;20648;-78
2022/01/02 03:24:00;;;;;;;9.90;3.90;;;12.50;99.90;;;;;;4952876;28;20212;-77
2022/01/02 03:26:26;;;;;;;7.77;3.70;;;12.50;99.90;;;;;;4958842;28;20287;-77
2022/01/02 03:28:53;;;;;;;11.30;4.00;;;12.60;99.90;;;;;;4956121;28;20216;-78
2022/01/02 03:31:20;;;;;;;9.87;3.90;;;12.60;99.90;;;;;;4964931;28;20248;-77
2022/01/02 03:33:47;;;;;;;12.03;4.47;;;12.60;99.90;;;;;;4954925;28;20264;-78
2022/01/02 03:36:14;;;;;;;11.70;3.77;;;12.70;99.90;;;;;;4961497;28;20228;-77
2022/01/02 03:38:41;;;;;;;10.60;3.53;;;12.70;99.90;;;;;;4957983;28;20234;-77
2022/01/02 03:41:08;;;;;;;13.10;3.80;;;12.70;99.90;;;;;;4958258;28;20291;-77
2022/01/02 03:43:36;;;;;;;6.37;3.10;;;12.80;99.90;;;;;;4954957;28;20597;-77
2022/01/02 03:46:02;;;;;;;12.80;3.80;;;12.80;99.90;;;;;;4958981;28;20299;-78
2022/01/02 03:48:32;;;;;;;8.53;3.80;;;12.80;99.90;;;;;;4961620;28;20664;-78
2022/01/02 03:51:06;;;;;;;7.27;3.20;;;12.90;99.90;;;;;;4954147;28;20238;-78
2022/01/02 03:53:34;;;;;;;11.17;3.20;;;12.90;99.90;;;;;;4962068;28;20661;-77
2022/01/02 03:56:01;;;;;;;12.13;3.37;;;13.00;99.90;;;;;;4955784;28;20220;-76
2022/01/02 03:58:28;;;;;;;9.80;3.60;;;13.00;99.90;;;;;;4961548;28;20236;-77
2022/01/02 04:00:55;;;;;;;12.60;4.23;;;13.00;99.90;;;;;;4959647;28;20204;-79
2022/01/02 04:03:23;;;;;;;7.70;3.17;;;13.00;99.90;;;;;;4961611;28;20203;-75
2022/01/02 04:05:49;;;;;;;9.70;3.90;;;13.00;99.90;;;;;;4954707;28;20563;-77
2022/01/02 04:08:16;;;;;;;11.90;3.97;;;13.00;99.90;;;;;;4961778;28;20232;-76
2022/01/02 04:10:43;;;;;;;12.77;3.73;;;13.00;99.90;;;;;;4960626;28;20239;-76
2022/01/02 04:13:10;;;;;;;12.63;3.67;;;13.00;99.90;;;;;;4960417;28;20245;-77
2022/01/02 04:15:36;;;;;;;10.83;4.17;;;13.00;99.90;;;;;;4965197;28;20677;-78
2022/01/02 04:18:04;;;;;;;11.80;3.80;;;13.00;99.90;;;;;;4961852;28;20244;-78
2022/01/02 04:20:31;;;;;;;10.47;3.77;;;13.10;99.90;;;;;;4957524;28;20227;-78
2022/01/02 04:22:57;;;;;;;9.07;3.17;;;13.10;99.90;;;;;;4959139;28;20519;-77
2022/01/02 04:25:24;;;;;;;8.93;4.23;;;13.10;99.90;;;;;;4957652;28;20658;-77
2022/01/02 04:27:51;;;;;;;7.00;3.13;;;13.10;99.90;;;;;;4957964;28;20235;-77
2022/01/02 04:30:18;;;;;;;7.43;3.20;;;13.10;99.90;;;;;;4946615;28;20342;-77
2022/01/02 04:32:48;;;;;;;13.50;3.73;;;13.10;99.90;;;;;;4944466;28;20592;-76
2022/01/02 04:35:16;;;;;;;8.13;3.17;;;13.20;99.90;;;;;;4957208;28;20402;-77
2022/01/02 04:37:43;;;;;;;7.30;3.13;;;13.10;99.90;;;;;;4962025;28;20224;-77
2022/01/02 04:40:10;;;;;;;13.30;3.23;;;13.10;99.90;;;;;;4957547;28;20666;-75
2022/01/02 04:42:36;;;;;;;7.83;2.80;;;13.20;99.90;;;;;;4959187;28;20299;-76
2022/01/02 04:45:13;;;;;;;9.50;3.33;;;13.20;99.90;;;;;;4953381;28;20638;-77
2022/01/02 04:47:40;;;;;;;11.30;3.60;;;13.20;99.90;;;;;;4950246;28;20736;-77
2022/01/02 04:50:06;;;;;;;12.27;3.13;;;13.10;99.90;;;;;;4943280;28;20311;-77
2022/01/02 04:52:33;;;;;;;14.00;3.97;;;13.10;99.90;;;;;;4961137;28;20212;-78
2022/01/02 04:55:00;;;;;;;9.13;3.60;;;13.00;99.90;;;;;;4943513;28;20208;-79
2022/01/02 04:57:27;;;;;;;9.70;3.30;;;13.00;99.90;;;;;;4962339;28;20314;-77
2022/01/02 04:59:54;;;;;;;11.97;3.70;;;13.00;99.90;;;;;;4957773;28;20216;-77
2022/01/02 05:02:21;;;;;;;11.17;3.40;;;13.00;99.90;;;;;;4957341;28;20213;-76
2022/01/02 05:04:48;;;;;;;13.80;3.87;;;13.00;99.90;;;;;;4963897;28;20243;-77
2022/01/02 05:07:15;;;;;;;8.10;3.47;;;12.90;99.90;;;;;;4947454;28;20212;-79
2022/01/02 05:09:42;;;;;;;6.60;3.80;;;12.90;99.90;;;;;;4968831;28;20200;-79
2022/01/02 05:12:09;;;;;;;8.97;3.20;;;12.90;99.90;;;;;;4970436;28;20220;-78
2022/01/02 05:14:36;;;;;;;10.23;3.37;;;12.90;99.90;;;;;;4964882;28;20326;-77
2022/01/02 05:17:06;;;;;;;10.83;3.80;;;12.90;99.90;;;;;;4944153;28;20283;-77
2022/01/02 05:19:33;;;;;;;9.27;3.63;;;12.90;99.90;;;;;;4952311;28;20649;-78
2022/01/02 05:22:00;;;;;;;10.53;3.53;;;12.80;99.90;;;;;;4960972;28;20626;-78
2022/01/02 05:24:27;;;;;;;12.47;3.80;;;12.90;99.90;;;;;;4962038;28;20262;-78
2022/01/02 05:26:55;;;;;;;13.03;3.80;;;12.80;99.90;;;;;;4957344;28;20211;-77
2022/01/02 05:29:22;;;;;;;10.90;3.70;;;12.80;99.90;;;;;;4954346;28;20243;-77
2022/01/02 05:31:49;;;;;;;10.47;3.40;;;12.80;99.90;;;;;;4955788;28;20244;-78
2022/01/02 05:34:17;;;;;;;7.80;3.50;;;12.80;99.90;;;;;;4938713;29;20780;-77
2022/01/02 05:36:48;;;;;;;9.03;4.20;;;12.70;99.90;;;;;;4959577;28;20616;-77
2022/01/02 05:39:17;;;;;;;10.23;4.07;;;12.80;99.90;;;;;;4956764;28;20236;-77
2022/01/02 05:41:48;;;;;;;11.30;3.87;;;12.80;99.90;;;;;;4957422;28;20212;-77
2022/01/02 05:44:15;;;;;;;10.93;4.00;;;12.70;99.90;;;;;;4936496;29;20728;-77
2022/01/02 05:46:43;;;;;;;11.63;3.70;;;12.80;99.90;;;;;;4957391;28;20291;-78
2022/01/02 05:49:11;;;;;;;9.83;3.60;;;12.80;99.90;;;;;;4955699;28;20220;-78
2022/01/02 05:51:38;;;;;;;10.40;4.60;;;12.70;99.90;;;;;;4961928;28;20204;-78
2022/01/02 05:54:06;;;;;;;9.03;3.93;;;12.70;99.90;;;;;;4958727;28;20216;-78
2022/01/02 05:56:33;;;;;;;11.10;4.30;;;12.70;99.90;;;;;;4972820;28;20228;-79
2022/01/02 05:59:00;;;;;;;7.40;3.20;;;12.70;99.90;;;;;;4954188;28;20714;-77
2022/01/02 06:01:26;;;;;;;11.53;4.43;;;12.70;99.90;;;;;;4957707;28;20204;-79
2022/01/02 06:03:54;;;;;;;9.03;4.13;;;12.60;99.90;;;;;;4951710;29;20225;-79
2022/01/02 06:06:21;;;;;;;7.97;4.03;;;12.60;99.90;;;;;;4956081;28;20252;-78
2022/01/02 06:08:48;;;;;;;9.40;4.67;;;12.60;99.90;;;;;;4955670;28;20716;-78
2022/01/02 06:11:14;;;;;;;13.27;4.60;;;12.60;99.90;;;;;;4946921;28;20255;-78
2022/01/02 06:13:42;;;;;;;10.50;4.37;;;12.60;99.90;;;;;;4938014;29;20711;-78
2022/01/02 06:16:11;;;;;;;8.90;4.00;;;12.60;99.90;;;;;;4954509;28;20212;-79
2022/01/02 06:18:38;;;;;;;9.13;4.17;;;12.60;99.90;;;;;;4959154;28;20247;-78
2022/01/02 06:21:05;;;;;;;7.93;4.07;;;12.50;99.90;;;;;;4953281;28;20291;-78
2022/01/02 06:23:32;;;;;;;10.17;3.67;;;12.50;99.90;;;;;;4959206;28;20250;-78
2022/01/02 06:25:59;;;;;;;10.40;3.93;;;12.40;99.90;;;;;;4970113;28;20207;-77
2022/01/02 06:28:26;;;;;;;10.63;4.33;;;12.40;99.90;;;;;;4970471;28;20246;-78
2022/01/02 06:30:53;;;;;;;7.53;3.90;;;12.40;99.90;;;;;;4946423;29;20208;-78
2022/01/02 06:33:19;;;;;;;11.53;4.40;;;12.50;99.90;;;;;;4964658;28;20246;-78
2022/01/02 06:35:46;;;;;;;8.53;4.00;;;12.40;99.90;;;;;;4959827;28;20287;-77
2022/01/02 06:38:19;;;;;;;7.80;3.77;;;12.50;99.90;;;;;;4958973;29;20232;-79
2022/01/02 06:40:46;;;;;;;11.87;4.33;;;12.40;99.90;;;;;;4952450;29;20728;-78
2022/01/02 06:43:14;;;;;;;6.20;4.10;;;12.40;99.90;;;;;;4956036;29;20541;-79
2022/01/02 06:45:42;;;;;;;9.73;3.63;;;12.40;99.90;;;;;;4950426;28;20228;-78
2022/01/02 06:48:10;;;;;;;8.83;4.20;;;12.40;99.90;;;;;;4950899;29;20208;-79
2022/01/02 06:50:36;;;;;;;9.03;4.13;;;12.40;99.90;;;;;;4951127;29;20315;-79
2022/01/02 06:53:03;;;;;;;12.60;4.17;;;12.40;99.90;;;;;;4951519;29;20216;-78
2022/01/02 06:55:30;;;;;;;10.63;4.53;;;12.40;99.90;;;;;;4950763;29;20240;-78
2022/01/02 06:57:57;;;;;;;11.50;4.07;;;12.40;99.90;;;;;;4950488;29;20224;-79
2022/01/02 07:00:25;;;;;;;8.37;3.87;;;12.40;99.90;;;;;;4950936;29;20299;-78
2022/01/02 07:02:52;;;;;;;7.73;3.53;;;12.40;99.90;;;;;;4949988;29;20625;-78
2022/01/02 07:05:20;;;;;;;8.23;4.00;;;12.40;99.90;;;;;;4953701;28;20228;-77
2022/01/02 07:07:47;;;;;;;10.47;4.10;;;12.40;99.90;;;;;;4936686;29;20228;-77
2022/01/02 07:10:16;;;;;;;8.63;3.73;;;12.40;99.90;;;;;;4954459;29;20211;-77
2022/01/02 07:12:45;;;;;;;7.67;3.90;;;12.40;99.90;;;;;;4953644;29;20575;-77
2022/01/02 07:15:12;;;;;;;8.17;3.67;;;12.50;99.90;;;;;;4954313;29;20656;-78
2022/01/02 07:17:39;;;;;;;5.67;3.37;;;12.40;99.90;;;;;;4953271;29;20668;-77
2022/01/02 07:20:07;;;;;;;9.47;3.50;;;12.40;99.90;;;;;;4953704;29;20319;-78
2022/01/02 07:22:34;;;;;;;9.20;4.30;;;12.40;99.90;;;;;;4954338;29;20295;-79
2022/01/02 07:25:02;;;;;;;8.50;3.50;;;12.40;99.90;;;;;;4953382;29;20214;-78
2022/01/02 07:27:31;;;;;;;6.37;3.73;;;12.40;99.90;;;;;;4954263;29;20215;-78
2022/01/02 07:29:59;;;;;;;9.27;4.10;;;12.40;99.90;;;;;;4954482;29;20284;-78
2022/01/02 07:32:26;;;;;;;6.03;3.67;;;12.40;99.90;;;;;;4954837;29;20235;-78
2022/01/02 07:34:53;;;;;;;6.40;3.53;;;12.30;99.90;;;;;;4954422;29;20271;-77
2022/01/02 07:37:20;;;;;;;7.70;3.40;;;12.40;99.90;;;;;;4959709;29;20212;-77
2022/01/02 07:39:47;;;;;;;7.27;3.60;;;12.40;99.90;;;;;;4954422;28;20308;-78
2022/01/02 07:42:13;;;;;;;7.30;3.63;;;12.30;99.90;;;;;;4965727;29;20224;-77
2022/01/02 07:44:40;;;;;;;5.53;3.03;;;12.40;99.90;;;;;;4968016;29;20255;-78
2022/01/02 07:47:08;;;;;;;7.13;3.40;;;12.40;99.90;;;;;;4967982;29;20231;-77
2022/01/02 07:49:35;;;;;;;8.23;3.50;;;12.30;99.90;;;;;;4971044;29;20231;-78
2022/01/02 07:52:02;;;;;;;8.43;3.37;;;12.40;99.90;;;;;;4957137;29;20222;-78
2022/01/02 07:54:30;;;;;;;4.83;2.83;;;12.40;99.90;;;;;;4965812;29;20276;-78
2022/01/02 07:56:57;;;;;;;8.43;3.63;;;12.40;99.90;;;;;;4956933;29;20266;-78
2022/01/02 07:59:24;;;;;;;7.03;3.27;;;12.30;99.90;;;;;;4956208;29;20327;-79
2022/01/02 08:01:51;;;;;;;8.77;3.10;;;12.30;99.90;;;;;;4952863;29;20307;-78
2022/01/02 08:04:19;;;;;;;6.97;3.20;;;12.30;99.90;;;;;;4952961;29;20283;-79
2022/01/02 08:06:46;;;;;;;5.60;3.30;;;12.30;99.90;;;;;;4953945;28;20197;-79
2022/01/02 08:09:13;;;;;;;6.37;3.30;;;12.40;99.90;;;;;;4942764;29;20208;-78
2022/01/02 08:11:43;;;;;;;11.17;3.07;;;12.40;99.90;;;;;;4956788;28;20224;-77
2022/01/02 08:14:15;;;;;;;8.30;3.67;;;12.40;99.90;;;;;;4935939;29;20246;-79
2022/01/02 08:16:44;;;;;;;7.67;3.17;;;12.40;99.90;;;;;;4952443;28;20208;-80
2022/01/02 08:19:14;;;;;;;5.63;2.87;;;12.40;99.90;;;;;;4960372;28;20768;-78
2022/01/02 08:21:42;;;;;;;7.33;3.33;;;12.40;99.90;;;;;;4955031;28;20197;-78
2022/01/02 08:24:09;;;;;;;7.32;3.47;;;12.40;99.90;;;;;;4930571;28;20528;-78
2022/01/02 08:26:36;;;;;;;7.27;3.23;;;12.50;99.90;;;;;;4959197;28;20288;-79
2022/01/02 08:29:06;;;;;;;10.43;4.07;;;12.40;99.90;;;;;;4953432;28;20201;-79
2022/01/02 08:31:33;;;;;;;9.20;3.50;;;12.30;99.90;;;;;;4939183;28;20215;-80
2022/01/02 08:34:01;;;;;;;9.00;3.33;;;12.30;99.90;;;;;;4969585;28;20200;-79
2022/01/02 08:36:28;;;;;;;9.47;3.37;;;12.30;99.90;;;;;;4958791;28;20216;-77
2022/01/02 08:38:55;;;;;;;6.23;4.17;;;12.10;99.90;;;;;;4954226;28;20548;-79
2022/01/02 08:41:22;;;;;;;7.03;3.50;;;12.10;99.90;;;;;;4935844;29;20232;-79
2022/01/02 08:43:48;;;;;;;7.77;3.57;;;12.10;99.90;;;;;;4949567;29;20716;-80
2022/01/02 08:46:16;;;;;;;8.87;3.50;;;12.10;99.90;;;;;;4966586;28;20213;-79
2022/01/02 08:48:43;;;;;;;7.10;3.60;;;12.00;99.90;;;;;;4941587;28;20220;-79
2022/01/02 08:51:12;;;;;;;6.47;3.50;;;12.00;99.90;;;;;;4939379;28;20226;-79
2022/01/02 08:53:39;;;;;;;7.67;3.17;;;12.00;99.90;;;;;;4932993;29;20639;-79
2022/01/02 08:56:07;;;;;;;9.20;3.57;;;12.00;99.90;;;;;;4956030;28;20287;-79
2022/01/02 08:58:33;;;;;;;10.60;4.03;;;12.00;99.90;;;;;;4941606;29;20449;-78
2022/01/02 09:01:01;;;;;;;8.87;3.73;;;12.00;99.90;;;;;;4950277;28;20259;-80
2022/01/02 09:03:29;;;;;;;8.00;3.80;;;12.00;99.90;;;;;;4954225;28;20561;-80
2022/01/02 09:05:57;;;;;;;9.60;3.70;;;12.00;99.90;;;;;;4953109;28;20228;-80
2022/01/02 09:08:28;;;;;;;7.70;3.57;;;12.00;99.90;;;;;;4949009;28;20208;-79
2022/01/02 09:10:55;;;;;;;9.77;4.00;;;12.00;99.90;;;;;;4951707;28;20641;-78
2022/01/02 09:13:23;;;;;;;8.07;3.70;;;12.00;99.90;;;;;;4946323;28;20291;-77
2022/01/02 09:15:50;;;;;;;6.80;3.40;;;12.00;99.90;;;;;;4962006;28;20212;-77
2022/01/02 09:18:17;;;;;;;7.83;3.63;;;12.00;99.90;;;;;;4951761;28;20282;-79
2022/01/02 09:20:44;;;;;;;9.07;3.40;;;12.10;99.90;;;;;;4965557;28;20293;-78
2022/01/02 09:23:12;;;;;;;5.83;3.50;;;12.10;99.90;;;;;;4951975;28;20243;-78
2022/01/02 09:25:39;;;;;;;8.37;3.80;;;12.10;99.90;;;;;;4955089;28;20624;-79
2022/01/02 09:28:06;;;;;;;5.60;3.70;;;12.10;99.90;;;;;;4953818;28;20211;-80
2022/01/02 09:30:33;;;;;;;6.40;3.43;;;12.10;99.90;;;;;;4952765;28;20255;-78
2022/01/02 09:33:01;;;;;;;5.17;3.73;;;12.10;99.90;;;;;;4933113;28;20239;-78
2022/01/02 09:35:28;;;;;;;10.73;3.83;;;12.10;99.90;;;;;;4949709;28;20213;-78
2022/01/02 09:37:55;;;;;;;6.90;4.23;;;12.20;99.90;;;;;;4951014;28;20283;-78
2022/01/02 09:40:25;;;;;;;12.70;4.40;;;12.30;99.90;;;;;;4955465;28;20338;-77
2022/01/02 09:42:57;;;;;;;5.57;3.43;;;12.10;99.90;;;;;;4949728;29;20709;-79
2022/01/02 09:45:24;;;;;;;5.60;4.00;;;12.10;99.90;;;;;;4938848;28;20216;-77
2022/01/02 09:47:52;;;;;;;7.60;4.33;;;12.10;99.90;;;;;;4950248;29;20192;-78
2022/01/02 09:50:19;;;;;;;5.97;3.97;;;12.00;99.90;;;;;;4955377;28;20220;-80
2022/01/02 09:52:47;;;;;;;9.50;4.67;;;12.00;99.90;;;;;;4949841;28;20303;-79
2022/01/02 09:55:14;;;;;;;9.70;4.83;;;12.00;99.90;;;;;;4953531;28;20239;-78
2022/01/02 09:57:45;;;;;;;9.33;4.43;;;12.00;99.90;;;;;;4951867;28;20288;-79
2022/01/02 10:00:14;;;;;;;6.53;4.40;;;12.00;99.90;;;;;;4957981;28;20227;-79
2022/01/02 10:02:57;;;;;;;9.23;4.37;;;12.00;99.90;;;;;;4950114;28;20228;-77
2022/01/02 10:05:27;;;;;;;6.60;4.27;;;11.90;99.90;;;;;;4937186;29;20243;-78
2022/01/02 10:07:55;;;;;;;9.73;4.43;;;12.00;99.90;;;;;;4938180;28;20709;-79
2022/01/02 10:10:33;;;;;;;9.30;4.97;;;12.00;99.90;;;;;;4971544;28;20203;-77
2022/01/02 10:13:03;;;;;;;7.83;5.27;;;12.00;99.90;;;;;;4958945;28;20232;-79
2022/01/02 10:15:35;;;;;;;7.27;4.50;;;12.00;99.90;;;;;;4938960;29;20898;-77
2022/01/02 10:18:07;;;;;;;7.93;4.53;;;12.00;99.90;;;;;;4939610;28;20686;-78
2022/01/02 10:20:46;;;;;;;7.90;5.03;;;12.00;99.90;;;;;;4930487;28;21003;-77
2022/01/02 10:23:14;;;;;;;9.00;5.07;;;12.10;99.90;;;;;;4954732;28;20204;-78
2022/01/02 10:25:55;;;;;;;9.93;5.70;;;12.10;99.90;;;;;;4944583;28;20302;-77
2022/01/02 10:28:44;;;;;;;10.77;6.27;;;12.10;99.90;;;;;;4954185;28;20205;-78
2022/01/02 10:31:15;;;;;;;7.97;4.93;;;12.20;99.90;;;;;;4954761;28;20196;-78
2022/01/02 10:33:54;;;;;;;8.60;5.07;;;12.30;99.90;;;;;;4955574;28;20594;-77
2022/01/02 10:36:28;;;;;;;7.90;4.50;;;12.30;99.90;;;;;;4948106;28;20696;-79
2022/01/02 10:39:09;;;;;;;8.07;5.00;;;12.30;99.90;;;;;;4951509;28;20247;-73
2022/01/02 10:41:46;;;;;;;8.40;4.40;;;12.40;99.90;;;;;;4955773;28;20675;-79
2022/01/02 10:44:18;;;;;;;9.60;5.07;;;12.40;99.90;;;;;;4952428;28;20207;-78
2022/01/02 10:47:06;;;;;;;9.80;5.60;;;12.40;99.90;;;;;;4952754;28;20220;-78
2022/01/02 10:49:47;;;;;;;10.63;4.63;;;12.50;99.90;;;;;;4965223;28;20245;-77
2022/01/02 10:52:37;;;;;;;7.17;4.53;;;12.60;99.90;;;;;;4963555;28;20676;-78
2022/01/02 10:55:19;;;;;;;9.80;4.73;;;12.70;99.90;;;;;;4963857;28;20211;-77
2022/01/02 10:57:49;;;;;;;8.33;4.67;;;12.70;99.90;;;;;;4958242;28;20246;-78
2022/01/02 11:00:17;;;;;;;10.53;4.93;;;12.80;99.90;;;;;;4961638;28;20256;-78
2022/01/02 11:02:45;;;;;;;8.23;5.10;;;12.80;99.90;;;;;;4955534;28;20259;-78
2022/01/02 11:05:17;;;;;;;9.53;5.37;;;12.90;99.90;;;;;;4954959;28;20649;-78
2022/01/02 11:07:58;;;;;;;9.20;4.40;;;12.90;99.90;;;;;;4938257;28;20712;-77
2022/01/02 11:10:35;;;;;;;10.07;4.97;;;12.90;99.90;;;;;;4955144;28;20219;-82
2022/01/02 11:13:07;;;;;;;9.80;5.67;;;12.90;99.90;;;;;;4970072;28;20207;-77
2022/01/02 11:15:34;;;;;;;12.97;5.70;;;12.80;99.90;;;;;;4955634;28;20208;-79
2022/01/02 11:18:02;;;;;;;8.63;5.27;;;12.80;99.90;;;;;;4932113;28;20272;-78
2022/01/02 11:20:33;;;;;;;13.37;6.17;;;12.80;99.90;;;;;;4953227;28;20242;-77
2022/01/02 11:23:27;;;;;;;8.63;5.20;;;13.00;99.90;;;;;;4952715;28;20660;-76
2022/01/02 11:26:21;;;;;;;8.27;5.20;;;13.00;99.90;;;;;;4939601;28;20673;-77
2022/01/02 11:29:09;;;;;;;8.97;5.57;;;12.80;99.90;;;;;;4952087;28;20211;-76
2022/01/02 11:31:38;;;;;;;9.47;5.87;;;12.90;99.90;;;;;;4948331;28;20200;-79
2022/01/02 11:34:21;;;;;;;9.10;5.33;;;12.90;99.90;;;;;;4954757;28;20239;-78
2022/01/02 11:36:49;;;;;;;12.73;5.90;;;12.90;99.90;;;;;;4952048;28;20314;-76
2022/01/02 11:39:18;;;;;;;9.13;5.73;;;12.90;99.90;;;;;;4955476;28;20283;-77
2022/01/02 11:41:52;;;;;;;11.70;6.70;;;12.80;99.90;;;;;;4959064;28;20722;-76
2022/01/02 11:44:21;;;;;;;12.63;6.43;;;12.70;99.90;;;;;;4962154;28;20231;-77
2022/01/02 11:46:56;;;;;;;9.23;5.40;;;12.60;99.90;;;;;;4960333;28;20251;-77
2022/01/02 11:49:40;;;;;;;14.30;6.73;;;12.80;99.90;;;;;;4950762;28;20224;-76
2022/01/02 11:52:26;;;;;;;10.67;5.50;;;12.70;99.90;;;;;;4955006;28;20660;-79
2022/01/02 11:54:54;;;;;;;10.57;5.60;;;12.80;99.90;;;;;;4957778;28;20257;-76
2022/01/02 11:57:22;;;;;;;13.53;5.13;;;12.80;99.90;;;;;;4957456;28;20212;-77
2022/01/02 11:59:52;;;;;;;11.77;6.20;;;12.90;99.90;;;;;;4942656;28;20236;-77
2022/01/02 12:02:23;;;;;;;8.63;5.43;;;13.00;99.90;;;;;;4954159;28;20220;-76
2022/01/02 12:07:35;;;;;;;10.57;5.03;;;13.10;99.90;;;;;;4955787;28;20234;-77
2022/01/02 12:10:16;;;;;;;11.60;4.87;;;13.00;99.90;;;;;;4953455;28;20204;-76
2022/01/02 12:13:06;;;;;;;9.07;4.73;;;13.10;99.90;;;;;;4954248;28;20295;-76
2022/01/02 12:15:44;;;;;;;12.17;5.60;;;13.00;99.90;;;;;;4958355;28;20205;-77
2022/01/02 12:18:20;;;;;;;11.70;5.10;;;13.00;99.90;;;;;;4952746;28;20287;-77
2022/01/02 12:20:53;;;;;;;9.50;4.40;;;13.00;99.90;;;;;;4955593;28;20306;-76
2022/01/02 12:23:35;;;;;;;8.63;4.27;;;13.00;99.90;;;;;;4939552;29;20282;-78
2022/01/02 12:26:21;;;;;;;13.40;5.53;;;13.10;99.90;;;;;;4946692;28;20736;-77
2022/01/02 12:29:01;;;;;;;10.47;4.37;;;13.00;99.90;;;;;;4968699;28;20200;-77
2022/01/02 12:31:31;;;;;;;12.13;5.23;;;13.10;99.90;;;;;;4949046;29;20530;-77
2022/01/02 12:34:08;;;;;;;11.73;4.97;;;13.10;99.90;;;;;;4951376;29;20268;-77
2022/01/02 12:36:37;;;;;;;13.17;4.80;;;13.10;99.90;;;;;;4951734;29;20211;-77
2022/01/02 12:39:07;;;;;;;10.17;5.03;;;13.10;99.90;;;;;;4955850;28;20727;-77
2022/01/02 12:41:44;;;;;;;10.17;4.60;;;13.10;99.90;;;;;;4940513;28;20238;-76
2022/01/02 12:44:15;;;;;;;9.17;4.87;;;13.20;99.90;;;;;;4961309;28;20213;-76
2022/01/02 12:46:53;;;;;;;10.10;5.57;;;13.10;99.90;;;;;;4952900;28;20204;-80
2022/01/02 12:49:22;;;;;;;10.13;4.47;;;13.10;99.90;;;;;;4958206;28;20238;-77
2022/01/02 12:51:51;;;;;;;11.87;4.20;;;13.10;99.90;;;;;;4958230;28;20335;-77
2022/01/02 12:54:29;;;;;;;8.30;3.90;;;13.10;99.90;;;;;;4942336;28;20212;-76
2022/01/02 12:57:00;;;;;;;14.40;3.57;;;13.10;99.90;;;;;;4964213;28;20616;-77
2022/01/02 12:59:35;;;;;;;11.30;3.60;;;13.20;99.90;;;;;;4952014;28;20634;-77
2022/01/02 13:02:21;;;;;;;11.37;4.03;;;13.10;99.90;;;;;;4951097;28;20291;-77
2022/01/02 13:04:53;;;;;;;12.63;4.30;;;13.10;99.90;;;;;;4957382;28;20239;-76
2022/01/02 13:07:31;;;;;;;13.37;3.53;;;13.20;99.90;;;;;;4951705;29;20205;-78
2022/01/02 13:09:59;;;;;;;11.27;3.20;;;13.20;99.90;;;;;;4957163;28;20299;-76